createdAt,value
2018-08-25T00:01:02.514Z,50.40
2018-08-25T00:03:30.737Z,50.70
2018-08-25T00:05:58.960Z,50.40
2018-08-25T00:08:27.159Z,50.30
2018-08-25T00:10:55.368Z,50.20
2018-08-25T00:13:23.675Z,50.20
2018-08-25T00:15:51.890Z,50.10
2018-08-25T00:18:20.148Z,50.70
2018-08-25T00:20:48.399Z,50.10
2018-08-25T00:23:16.654Z,50.10
2018-08-25T00:25:45.007Z,50.10
2018-08-25T00:28:13.343Z,50.00
2018-08-25T00:30:47.086Z,49.90
2018-08-25T00:33:15.370Z,50.00
2018-08-25T00:35:43.637Z,50.00
2018-08-25T00:38:11.944Z,50.10
2018-08-25T00:40:40.198Z,50.00
2018-08-25T00:43:08.455Z,49.70
2018-08-25T00:45:36.711Z,49.90
2018-08-25T00:48:05.011Z,50.10
2018-08-25T00:50:33.305Z,50.10
2018-08-25T00:53:01.555Z,50.20
2018-08-25T00:55:29.842Z,50.30
2018-08-25T00:57:58.138Z,50.30
2018-08-25T01:00:27.315Z,50.60
2018-08-25T01:02:55.611Z,50.70
2018-08-25T01:05:23.869Z,50.80
2018-08-25T01:07:52.146Z,50.80
2018-08-25T01:10:20.408Z,51.00
2018-08-25T01:12:48.674Z,50.90
2018-08-25T01:15:16.983Z,50.80
2018-08-25T01:17:45.254Z,50.50
2018-08-25T01:20:13.496Z,51.10
2018-08-25T01:22:41.761Z,51.20
2018-08-25T01:25:09.981Z,51.60
2018-08-25T01:27:38.431Z,51.80
2018-08-25T01:30:06.804Z,51.70
2018-08-25T01:32:35.020Z,51.60
2018-08-25T01:35:03.269Z,51.90
2018-08-25T01:37:31.473Z,52.00
2018-08-25T01:39:59.755Z,51.80
2018-08-25T01:42:28.008Z,52.10
2018-08-25T01:44:56.286Z,52.40
2018-08-25T01:47:24.480Z,52.50
2018-08-25T01:49:52.709Z,52.60
2018-08-25T01:52:20.909Z,53.30
2018-08-25T01:54:49.190Z,52.60
2018-08-25T01:57:17.421Z,53.00
2018-08-25T01:59:45.656Z,53.10
2018-08-25T02:02:13.911Z,52.90
2018-08-25T02:04:42.142Z,52.60
2018-08-25T02:07:10.382Z,52.90
2018-08-25T02:09:38.646Z,52.90
2018-08-25T02:12:06.890Z,53.20
2018-08-25T02:14:35.095Z,53.10
2018-08-25T02:17:03.530Z,53.30
2018-08-25T02:19:31.766Z,53.30
2018-08-25T02:21:59.980Z,53.30
2018-08-25T02:24:28.198Z,53.50
2018-08-25T02:26:56.573Z,53.10
2018-08-25T02:29:24.904Z,53.00
2018-08-25T02:31:53.132Z,53.20
2018-08-25T02:34:21.461Z,53.00
2018-08-25T02:36:49.746Z,52.50
2018-08-25T02:39:18.055Z,52.40
2018-08-25T02:41:46.326Z,52.40
2018-08-25T02:44:14.582Z,52.40
2018-08-25T02:46:42.903Z,52.00
2018-08-25T02:49:11.160Z,52.20
2018-08-25T02:51:39.391Z,51.40
2018-08-25T02:54:07.762Z,51.50
2018-08-25T02:56:36.082Z,51.20
2018-08-25T02:59:04.264Z,51.50
2018-08-25T03:01:32.538Z,51.30
2018-08-25T03:04:00.775Z,51.10
2018-08-25T03:06:28.997Z,51.00
2018-08-25T03:08:57.262Z,51.00
2018-08-25T03:11:25.493Z,51.20
2018-08-25T03:13:53.781Z,51.20
2018-08-25T03:16:22.078Z,50.80
2018-08-25T03:18:50.358Z,51.10
2018-08-25T03:21:18.554Z,51.20
2018-08-25T03:23:46.864Z,51.10
2018-08-25T03:26:15.110Z,50.80
2018-08-25T03:28:43.342Z,51.10
2018-08-25T03:31:11.558Z,51.10
2018-08-25T03:33:39.829Z,51.10
2018-08-25T03:36:08.037Z,51.80
2018-08-25T03:38:36.245Z,52.10
2018-08-25T03:41:04.459Z,51.90
2018-08-25T03:43:32.746Z,52.10
2018-08-25T03:46:00.977Z,52.20
2018-08-25T03:48:29.190Z,52.30
2018-08-25T03:50:57.424Z,52.40
2018-08-25T03:53:25.622Z,52.50
2018-08-25T03:55:53.799Z,52.30
2018-08-25T03:58:22.040Z,52.90
2018-08-25T04:00:50.271Z,52.70
2018-08-25T04:03:18.536Z,53.00
2018-08-25T04:05:46.703Z,52.70
2018-08-25T04:08:14.960Z,52.40
2018-08-25T04:10:49.805Z,52.80
2018-08-25T04:13:18.024Z,53.00
2018-08-25T04:15:46.213Z,53.30
2018-08-25T04:18:14.415Z,53.10
2018-08-25T04:20:42.660Z,53.30
2018-08-25T04:23:10.885Z,52.50
2018-08-25T04:25:39.115Z,52.50
2018-08-25T04:28:07.313Z,52.30
2018-08-25T04:30:35.566Z,52.00
2018-08-25T04:33:03.754Z,51.70
2018-08-25T04:35:31.951Z,51.60
2018-08-25T04:38:00.190Z,51.20
2018-08-25T04:40:28.402Z,51.10
2018-08-25T04:42:56.624Z,50.80
2018-08-25T04:45:24.870Z,51.20
2018-08-25T04:47:53.157Z,50.50
2018-08-25T04:50:21.598Z,50.60
2018-08-25T04:52:49.934Z,50.10
2018-08-25T04:55:18.190Z,50.40
2018-08-25T04:57:46.403Z,50.60
2018-08-25T05:00:14.608Z,50.30
2018-08-25T05:02:42.865Z,50.60
2018-08-25T05:05:11.077Z,50.00
2018-08-25T05:07:39.360Z,50.00
2018-08-25T05:10:07.574Z,50.40
2018-08-25T05:12:35.825Z,50.20
2018-08-25T05:15:04.034Z,50.10
2018-08-25T05:17:32.610Z,50.00
2018-08-25T05:20:00.996Z,50.00
2018-08-25T05:22:29.247Z,50.40
2018-08-25T05:24:57.547Z,50.20
2018-08-25T05:27:25.861Z,49.90
2018-08-25T05:29:54.193Z,49.70
2018-08-25T05:32:22.401Z,49.90
2018-08-25T05:34:50.634Z,50.10
2018-08-25T05:37:18.839Z,49.70
2018-08-25T05:39:47.098Z,50.50
2018-08-25T05:42:15.351Z,50.00
2018-08-25T05:44:43.627Z,50.30
2018-08-25T05:47:11.922Z,50.20
2018-08-25T05:49:40.127Z,50.30
2018-08-25T05:52:08.380Z,50.50
2018-08-25T05:54:36.634Z,50.90
2018-08-25T05:57:04.916Z,51.20
2018-08-25T05:59:33.226Z,50.60
2018-08-25T06:02:01.467Z,50.60
2018-08-25T06:04:29.696Z,50.50
2018-08-25T06:06:58.676Z,50.90
2018-08-25T06:09:26.926Z,50.90
2018-08-25T06:11:55.251Z,51.10
2018-08-25T06:14:23.501Z,50.90
2018-08-25T06:16:51.777Z,51.30
2018-08-25T06:19:20.095Z,51.90
2018-08-25T06:21:48.309Z,51.20
2018-08-25T06:24:16.556Z,51.50
2018-08-25T06:26:44.850Z,51.90
2018-08-25T06:29:13.160Z,52.00
2018-08-25T06:31:41.463Z,52.10
2018-08-25T06:34:09.704Z,52.50
2018-08-25T06:36:38.044Z,52.70
2018-08-25T06:39:07.554Z,52.80
2018-08-25T06:41:35.847Z,52.80
2018-08-25T06:44:04.143Z,52.70
2018-08-25T06:46:32.395Z,52.60
2018-08-25T06:49:00.955Z,52.50
2018-08-25T06:51:29.177Z,52.10
2018-08-25T06:53:57.467Z,52.20
2018-08-25T06:56:25.719Z,51.20
2018-08-25T06:58:53.903Z,50.30
2018-08-25T07:01:22.402Z,49.50
2018-08-25T07:03:51.139Z,49.10
2018-08-25T07:06:19.333Z,48.20
2018-08-25T07:08:47.798Z,47.50
2018-08-25T07:11:16.018Z,46.70
2018-08-25T07:13:44.252Z,46.20
2018-08-25T07:16:12.439Z,46.40
2018-08-25T07:18:40.703Z,46.60
2018-08-25T07:21:08.967Z,45.80
2018-08-25T07:23:37.161Z,45.60
2018-08-25T07:26:05.796Z,45.80
2018-08-25T07:28:40.538Z,45.40
2018-08-25T07:31:08.764Z,43.90
2018-08-25T07:33:37.015Z,44.50
2018-08-25T07:36:05.319Z,44.10
2018-08-25T07:38:33.718Z,43.80
2018-08-25T07:41:02.041Z,43.50
2018-08-25T07:43:30.233Z,43.80
2018-08-25T07:45:58.438Z,43.30
2018-08-25T07:48:26.697Z,43.10
2018-08-25T07:50:54.858Z,43.70
2018-08-25T07:53:23.169Z,43.00
2018-08-25T07:55:51.431Z,43.40
2018-08-25T07:58:19.721Z,44.10
2018-08-25T08:00:47.994Z,44.70
2018-08-25T08:03:16.267Z,45.60
2018-08-25T08:05:44.737Z,46.50
2018-08-25T08:08:12.978Z,46.80
2018-08-25T08:10:41.165Z,46.80
2018-08-25T08:13:09.388Z,47.40
2018-08-25T08:15:37.793Z,47.20
2018-08-25T08:18:06.014Z,47.00
2018-08-25T08:20:34.286Z,46.30
2018-08-25T08:23:02.618Z,46.00
2018-08-25T08:25:34.118Z,45.70
2018-08-25T08:28:05.421Z,44.90
2018-08-25T08:30:33.645Z,43.50
2018-08-25T08:33:02.000Z,44.30
2018-08-25T08:35:30.173Z,44.00
2018-08-25T08:37:58.455Z,43.90
2018-08-25T08:40:26.698Z,43.10
2018-08-25T08:42:54.934Z,42.70
2018-08-25T08:45:23.183Z,42.20
2018-08-25T08:47:51.410Z,41.00
2018-08-25T08:50:19.663Z,40.80
2018-08-25T08:52:48.025Z,40.50
2018-08-25T08:55:16.971Z,40.20
2018-08-25T08:57:45.189Z,39.90
2018-08-25T09:00:13.600Z,39.10
2018-08-25T09:02:41.858Z,38.60
2018-08-25T09:05:10.086Z,39.20
2018-08-25T09:07:38.374Z,38.40
2018-08-25T09:10:06.668Z,38.70
2018-08-25T09:12:35.113Z,38.80
2018-08-25T09:15:03.305Z,38.30
2018-08-25T09:17:31.597Z,38.50
2018-08-25T09:19:59.823Z,37.80
2018-08-25T09:22:28.054Z,38.90
2018-08-25T09:24:56.311Z,38.40
2018-08-25T09:27:24.606Z,37.90
2018-08-25T09:29:52.724Z,37.70
2018-08-25T09:32:20.979Z,38.40
2018-08-25T09:34:49.749Z,38.70
2018-08-25T09:37:17.988Z,37.40
2018-08-25T09:39:46.235Z,36.60
2018-08-25T09:42:14.459Z,36.50
2018-08-25T09:44:42.748Z,36.20
2018-08-25T09:47:11.042Z,36.60
2018-08-25T09:49:39.211Z,35.80
2018-08-25T09:52:07.438Z,36.50
2018-08-25T09:54:35.671Z,36.10
2018-08-25T09:57:03.880Z,36.00
2018-08-25T09:59:32.132Z,35.70
2018-08-25T10:02:01.393Z,35.10
2018-08-25T10:04:30.648Z,35.40
2018-08-25T10:06:59.142Z,33.90
2018-08-25T10:09:27.387Z,34.20
2018-08-25T10:11:55.920Z,34.40
2018-08-25T10:14:24.199Z,34.20
2018-08-25T10:16:52.442Z,33.70
2018-08-25T10:19:20.633Z,33.30
2018-08-25T10:21:48.859Z,34.00
2018-08-25T10:24:17.158Z,34.70
2018-08-25T10:26:45.362Z,38.60
2018-08-25T10:29:13.622Z,39.10
2018-08-25T10:31:41.867Z,42.40
2018-08-25T10:34:10.255Z,46.00
2018-08-25T10:36:38.483Z,48.20
2018-08-25T10:39:09.092Z,49.10
2018-08-25T10:41:37.471Z,51.70
2018-08-25T10:44:06.150Z,52.10
2018-08-25T10:46:34.550Z,53.00
2018-08-25T10:49:02.802Z,52.20
2018-08-25T10:51:31.120Z,51.00
2018-08-25T10:53:59.388Z,49.80
2018-08-25T10:56:27.630Z,52.10
2018-08-25T10:58:55.869Z,48.70
2018-08-25T11:01:24.059Z,48.30
2018-08-25T11:03:52.341Z,51.10
2018-08-25T11:06:20.663Z,51.10
2018-08-25T11:08:48.986Z,49.30
2018-08-25T11:11:17.209Z,51.40
2018-08-25T11:13:45.609Z,53.80
2018-08-25T11:16:13.868Z,53.10
2018-08-25T11:18:42.454Z,53.50
2018-08-25T11:21:10.726Z,51.40
2018-08-25T11:23:38.978Z,53.20
2018-08-25T11:26:07.225Z,49.90
2018-08-25T11:28:35.544Z,50.80
2018-08-25T11:31:03.813Z,52.40
2018-08-25T11:33:32.205Z,53.00
2018-08-25T11:36:00.435Z,51.00
2018-08-25T11:38:28.648Z,52.20
2018-08-25T11:40:56.891Z,51.70
2018-08-25T11:43:25.094Z,48.60
2018-08-25T11:45:53.434Z,49.40
2018-08-25T11:48:21.635Z,50.80
2018-08-25T11:50:49.926Z,50.80
2018-08-25T11:53:18.222Z,50.70
2018-08-25T11:55:46.578Z,51.50
2018-08-25T11:58:14.827Z,51.10
2018-08-25T12:00:43.110Z,50.10
2018-08-25T12:03:11.299Z,50.80
2018-08-25T12:05:39.536Z,51.20
2018-08-25T12:08:07.821Z,51.80
2018-08-25T12:10:36.046Z,52.50
2018-08-25T12:13:04.354Z,52.80
2018-08-25T12:15:32.566Z,53.10
2018-08-25T12:18:00.954Z,54.80
2018-08-25T12:20:29.176Z,54.10
2018-08-25T12:22:57.511Z,55.80
2018-08-25T12:25:25.787Z,56.80
2018-08-25T12:27:54.031Z,54.30
2018-08-25T12:30:22.340Z,57.20
2018-08-25T12:32:50.674Z,55.10
2018-08-25T12:35:18.907Z,55.00
2018-08-25T12:37:47.166Z,54.90
2018-08-25T12:40:15.340Z,54.80
2018-08-25T12:42:43.622Z,53.50
2018-08-25T12:45:11.962Z,54.80
2018-08-25T12:47:40.158Z,53.10
2018-08-25T12:50:08.454Z,51.80
2018-08-25T12:52:36.619Z,53.90
2018-08-25T12:55:05.130Z,51.80
2018-08-25T12:57:33.363Z,54.40
2018-08-25T13:00:01.703Z,53.20
2018-08-25T13:02:29.940Z,52.90
2018-08-25T13:04:58.198Z,51.20
2018-08-25T13:07:26.435Z,52.30
2018-08-25T13:09:54.674Z,52.80
2018-08-25T13:12:22.928Z,52.90
2018-08-25T13:14:51.272Z,55.00
2018-08-25T13:17:19.445Z,52.60
2018-08-25T13:19:47.686Z,54.20
2018-08-25T13:22:15.901Z,52.90
2018-08-25T13:24:44.170Z,52.70
2018-08-25T13:27:12.546Z,52.40
2018-08-25T13:29:40.751Z,52.80
2018-08-25T13:32:09.082Z,52.20
2018-08-25T13:34:37.309Z,53.80
2018-08-25T13:37:05.697Z,54.10
2018-08-25T13:39:33.983Z,54.20
2018-08-25T13:42:02.675Z,54.00
2018-08-25T13:44:31.677Z,54.40
2018-08-25T13:46:59.981Z,54.20
2018-08-25T13:49:28.211Z,52.10
2018-08-25T13:51:56.496Z,51.50
2018-08-25T13:54:24.826Z,51.20
2018-08-25T13:56:53.032Z,51.80
2018-08-25T13:59:21.334Z,52.90
2018-08-25T14:01:49.557Z,51.30
2018-08-25T14:04:17.855Z,52.60
2018-08-25T14:06:46.144Z,51.20
2018-08-25T14:09:14.392Z,52.30
2018-08-25T14:11:42.663Z,51.00
2018-08-25T14:14:10.931Z,50.00
2018-08-25T14:16:39.167Z,50.70
2018-08-25T14:19:07.397Z,52.20
2018-08-25T14:21:35.631Z,51.90
2018-08-25T14:24:03.901Z,51.30
2018-08-25T14:26:32.119Z,53.10
2018-08-25T14:29:00.307Z,51.60
2018-08-25T14:31:28.758Z,52.40
2018-08-25T14:33:56.958Z,52.20
2018-08-25T14:36:25.202Z,51.70
2018-08-25T14:38:53.399Z,51.10
2018-08-25T14:41:21.693Z,52.50
2018-08-25T14:43:51.724Z,51.60
2018-08-25T14:46:19.993Z,52.60
2018-08-25T14:48:48.261Z,51.40
2018-08-25T14:51:16.506Z,51.80
2018-08-25T14:53:44.749Z,51.80
2018-08-25T14:56:12.987Z,52.20
2018-08-25T14:58:41.229Z,53.40
2018-08-25T15:01:09.616Z,52.80
2018-08-25T15:03:38.121Z,52.80
2018-08-25T15:06:06.343Z,53.30
2018-08-25T15:08:34.588Z,53.80
2018-08-25T15:11:02.839Z,52.70
2018-08-25T15:13:31.031Z,54.40
2018-08-25T15:16:01.843Z,54.00
2018-08-25T15:18:30.535Z,55.70
2018-08-25T15:20:58.890Z,55.00
2018-08-25T15:23:27.713Z,55.90
2018-08-25T15:25:56.610Z,56.30
2018-08-25T15:28:24.882Z,55.50
2018-08-25T15:30:53.111Z,56.00
2018-08-25T15:33:21.350Z,57.70
2018-08-25T15:35:49.578Z,57.40
2018-08-25T15:38:17.774Z,57.60
2018-08-25T15:40:46.051Z,56.40
2018-08-25T15:43:14.287Z,58.10
2018-08-25T15:45:42.496Z,58.20
2018-08-25T15:48:10.720Z,58.90
2018-08-25T15:50:38.935Z,59.30
2018-08-25T15:53:07.242Z,58.30
2018-08-25T15:55:35.409Z,58.80
2018-08-25T15:58:03.842Z,58.90
2018-08-25T16:00:32.066Z,58.70
2018-08-25T16:03:03.272Z,59.10
2018-08-25T16:05:38.122Z,59.10
2018-08-25T16:08:06.289Z,59.20
2018-08-25T16:10:34.547Z,59.90
2018-08-25T16:13:02.798Z,60.30
2018-08-25T16:15:31.026Z,60.60
2018-08-25T16:17:59.299Z,60.40
2018-08-25T16:20:27.504Z,61.70
2018-08-25T16:22:55.785Z,61.20
2018-08-25T16:25:23.995Z,61.70
2018-08-25T16:27:52.208Z,61.00
2018-08-25T16:30:20.446Z,60.80
2018-08-25T16:32:48.668Z,61.90
2018-08-25T16:35:16.934Z,61.70
2018-08-25T16:37:45.125Z,61.20
2018-08-25T16:40:13.424Z,61.60
2018-08-25T16:42:41.670Z,62.00
2018-08-25T16:45:09.945Z,63.40
2018-08-25T16:47:38.192Z,63.10
2018-08-25T16:50:06.467Z,63.10
2018-08-25T16:52:34.800Z,62.40
2018-08-25T16:55:03.022Z,61.60
2018-08-25T16:57:31.255Z,61.40
2018-08-25T16:59:59.545Z,62.00
2018-08-25T17:02:27.909Z,61.40
2018-08-25T17:04:56.206Z,61.00
2018-08-25T17:07:24.539Z,60.20
2018-08-25T17:09:52.783Z,61.70
2018-08-25T17:12:21.110Z,60.50
2018-08-25T17:14:49.364Z,60.40
2018-08-25T17:17:17.627Z,61.10
2018-08-25T17:19:45.989Z,60.40
2018-08-25T17:22:14.187Z,60.90
2018-08-25T17:24:42.424Z,61.30
2018-08-25T17:27:10.639Z,62.60
2018-08-25T17:29:38.885Z,62.30
2018-08-25T17:32:07.090Z,61.40
2018-08-25T17:34:35.313Z,61.60
2018-08-25T17:37:03.547Z,62.30
2018-08-25T17:39:31.882Z,62.10
2018-08-25T17:42:00.170Z,62.80
2018-08-25T17:44:28.424Z,62.90
2018-08-25T17:46:56.613Z,62.50
2018-08-25T17:49:24.820Z,62.70
2018-08-25T17:51:53.078Z,62.80
2018-08-25T17:54:21.338Z,62.60
2018-08-25T17:56:49.629Z,62.50
2018-08-25T17:59:17.995Z,62.60
2018-08-25T18:01:46.261Z,62.60
2018-08-25T18:04:15.490Z,63.80
2018-08-25T18:06:43.687Z,64.10
2018-08-25T18:09:11.932Z,63.30
2018-08-25T18:11:40.129Z,64.40
2018-08-25T18:14:08.327Z,65.50
2018-08-25T18:16:36.553Z,65.60
2018-08-25T18:19:05.235Z,65.00
2018-08-25T18:21:33.451Z,64.70
2018-08-25T18:24:01.666Z,65.60
2018-08-25T18:26:29.933Z,66.20
2018-08-25T18:28:58.135Z,66.50
2018-08-25T18:31:26.405Z,65.70
2018-08-25T18:33:54.659Z,66.40
2018-08-25T18:36:23.374Z,66.80
2018-08-25T18:38:51.580Z,67.10
2018-08-25T18:41:19.811Z,66.70
2018-08-25T18:43:48.085Z,67.10
2018-08-25T18:46:16.990Z,67.20
2018-08-25T18:48:45.238Z,67.50
2018-08-25T18:51:13.455Z,67.50
2018-08-25T18:53:41.755Z,68.10
2018-08-25T18:56:10.036Z,67.80
2018-08-25T18:58:38.317Z,67.10
2018-08-25T19:01:06.547Z,66.90
2018-08-25T19:03:34.766Z,67.90
2018-08-25T19:06:03.037Z,67.10
2018-08-25T19:08:31.392Z,67.50
2018-08-25T19:10:59.669Z,67.80
2018-08-25T19:13:27.919Z,67.40
2018-08-25T19:15:56.209Z,67.80
2018-08-25T19:18:24.483Z,66.50
2018-08-25T19:20:52.842Z,66.70
2018-08-25T19:23:21.109Z,67.10
2018-08-25T19:25:49.482Z,66.20
2018-08-25T19:28:17.734Z,66.20
2018-08-25T19:30:45.987Z,66.20
2018-08-25T19:33:20.493Z,63.80
2018-08-25T19:35:49.589Z,63.60
2018-08-25T19:38:17.858Z,63.40
2018-08-25T19:40:46.103Z,63.20
2018-08-25T19:43:14.306Z,65.30
2018-08-25T19:45:42.554Z,67.70
2018-08-25T19:48:10.864Z,69.50
2018-08-25T19:50:39.209Z,69.70
2018-08-25T19:53:07.497Z,69.60
2018-08-25T19:55:35.718Z,70.90
2018-08-25T19:58:03.969Z,71.40
2018-08-25T20:00:33.275Z,71.90
2018-08-25T20:03:01.491Z,70.90
2018-08-25T20:05:29.845Z,71.00
2018-08-25T20:07:57.954Z,72.50
2018-08-25T20:10:26.234Z,70.60
2018-08-25T20:12:54.483Z,67.90
2018-08-25T20:15:22.847Z,68.50
2018-08-25T20:17:51.088Z,67.80
2018-08-25T20:20:19.596Z,67.80
2018-08-25T20:22:47.825Z,66.50
2018-08-25T20:25:16.030Z,67.50
2018-08-25T20:27:44.325Z,67.90
2018-08-25T20:30:12.660Z,67.50
2018-08-25T20:32:40.923Z,67.10
2018-08-25T20:35:09.502Z,67.30
2018-08-25T20:37:37.723Z,67.40
2018-08-25T20:40:06.003Z,67.50
2018-08-25T20:42:34.255Z,67.50
2018-08-25T20:45:02.521Z,67.80
2018-08-25T20:47:30.815Z,66.90
2018-08-25T20:49:59.241Z,67.10
2018-08-25T20:52:27.470Z,66.50
2018-08-25T20:54:55.876Z,67.80
2018-08-25T20:57:24.126Z,67.30
2018-08-25T20:59:52.370Z,66.80
2018-08-25T21:02:20.674Z,67.10
2018-08-25T21:04:48.951Z,67.30
2018-08-25T21:07:17.150Z,67.60
2018-08-25T21:09:45.482Z,67.40
2018-08-25T21:12:13.785Z,66.70
2018-08-25T21:14:42.042Z,65.70
2018-08-25T21:17:10.337Z,65.70
2018-08-25T21:19:38.815Z,66.10
2018-08-25T21:22:07.035Z,66.30
2018-08-25T21:24:35.335Z,65.30
2018-08-25T21:27:03.569Z,65.10
2018-08-25T21:29:31.811Z,64.80
2018-08-25T21:32:00.095Z,65.30
2018-08-25T21:34:28.365Z,65.70
2018-08-25T21:36:56.681Z,66.40
2018-08-25T21:39:25.005Z,65.70
2018-08-25T21:41:53.249Z,65.10
2018-08-25T21:44:21.563Z,65.80
2018-08-25T21:46:49.802Z,65.30
2018-08-25T21:49:18.065Z,64.90
2018-08-25T21:51:46.422Z,64.00
2018-08-25T21:54:14.687Z,64.70
2018-08-25T21:56:43.088Z,65.30
2018-08-25T21:59:11.467Z,64.90
2018-08-25T22:01:43.329Z,65.10
2018-08-25T22:04:12.399Z,64.50
2018-08-25T22:06:40.668Z,64.50
2018-08-25T22:09:11.162Z,64.60
2018-08-25T22:11:39.745Z,64.00
2018-08-25T22:14:08.002Z,64.20
2018-08-25T22:16:36.239Z,63.70
2018-08-25T22:19:04.554Z,63.60
2018-08-25T22:21:32.808Z,62.90
2018-08-25T22:24:01.064Z,63.10
2018-08-25T22:26:29.358Z,63.30
2018-08-25T22:28:57.553Z,64.10
2018-08-25T22:31:25.831Z,63.20
2018-08-25T22:33:54.043Z,63.20
2018-08-25T22:36:22.334Z,62.00
2018-08-25T22:38:50.604Z,63.10
2018-08-25T22:41:19.033Z,63.20
2018-08-25T22:43:47.187Z,63.20
2018-08-25T22:46:15.449Z,62.60
2018-08-25T22:48:43.693Z,62.50
2018-08-25T22:51:11.955Z,62.10
2018-08-25T22:53:40.211Z,62.20
2018-08-25T22:56:08.422Z,62.50
2018-08-25T22:58:36.689Z,61.90
2018-08-25T23:01:04.887Z,62.80
2018-08-25T23:03:33.100Z,62.60
2018-08-25T23:06:01.340Z,62.90
2018-08-25T23:08:29.586Z,62.40
2018-08-25T23:10:57.813Z,62.30
2018-08-25T23:13:26.034Z,62.30
2018-08-25T23:15:54.314Z,63.30
2018-08-25T23:18:22.641Z,63.10
2018-08-25T23:20:50.922Z,63.10
2018-08-25T23:23:19.172Z,62.80
2018-08-25T23:25:47.451Z,62.30
2018-08-25T23:28:15.773Z,62.30
2018-08-25T23:30:44.040Z,62.90
2018-08-25T23:33:12.295Z,62.50
2018-08-25T23:35:40.549Z,62.50
2018-08-25T23:38:08.812Z,62.60
2018-08-25T23:40:37.022Z,62.70
2018-08-25T23:43:05.271Z,63.20
2018-08-25T23:45:33.526Z,62.50
2018-08-25T23:48:01.798Z,62.10
2018-08-25T23:50:36.504Z,62.30
2018-08-25T23:53:04.835Z,62.50
2018-08-25T23:55:33.127Z,62.00
2018-08-25T23:58:01.454Z,62.10
